Coral Princess — ZCDF4 — position and weather

sailwx.info

Track history (hours):
 
Tides and Currents Weather Stations Pressure Air Temp Water Temp Dewpoint Dewpoint Depression Visibility Wind Speed Wind Dir Waves Ship Positions

Coral Princess

Operator: Princess Cruises

Last reported at 2017-Apr-27 06:00 UTC. Time now 2017-Apr-29 13:34 UTC.
Position N 14°48' W 094°42'.

Type: Passenger vessel. MMSI: 310376000.

Wind from 210 at 15 knots

Barometer 1009.8 mb
Air temperature 28.0 ° C
Visibility: greater than 10.8 NM
Dewpoint 23.7 ° C
Water temperature 27.0 ° C

Date/timePositionNaut miles runAvg speedWind from/ knotsBaromVisibWave heightAir tempDewpointWater temp
2017-Apr-27 06:00N 14°48' W 094°42'   210 / 151009.810.8 28.023.727.0
2017-Apr-22 17:01N 09°11' W 079°52'0 5.6
2017-Apr-22 16:58N 09°11' W 079°52'4 7.6
2017-Apr-22 16:30N 09°13' W 079°55'2 2.4
2017-Apr-22 15:32N 09°15' W 079°55'0 0.0
2017-Apr-22 15:26N 09°15' W 079°55'0 0.0
2017-Apr-22 14:14N 09°15' W 079°55'1 1.6
2017-Apr-22 13:29N 09°16' W 079°55'0 0.4
2017-Apr-22 12:59N 09°16' W 079°55'0 0.4
2017-Apr-22 12:30N 09°17' W 079°55'1 1.0
2017-Apr-22 12:00N 09°17' W 079°55'1 2.5
2017-Apr-22 11:30N 09°18' W 079°55'3 5.5
2017-Apr-22 11:00N 09°21' W 079°55'3 6.2
2017-Apr-22 10:30N 09°24' W 079°55'713.3
2017-Apr-22 10:00N 09°31' W 079°54'715.0
2017-Apr-22 09:30N 09°38' W 079°51'20719.6
2017-Apr-21 23:00N 10°12' W 076°24'   1007.310.8 27.524.228.0
2017-Apr-19 03:00N 19°48' W 074°06'45116.6 080 / 301015.910.8 26.023.126.0
2017-Apr-17 23:47N 25°18' W 079°39'518.4
2017-Apr-17 23:30N 25°23' W 079°39'918.5
2017-Apr-17 23:00N 25°32' W 079°41'917.8
2017-Apr-17 22:30N 25°40' W 079°44'917.8
2017-Apr-17 22:00N 25°48' W 079°48'918.2
2017-Apr-17 21:30N 25°56' W 079°53'816.0
2017-Apr-17 21:00N 26°02' W 079°59'612.3
2017-Apr-17 20:30N 26°06' W 080°05'2 4.0
2017-Apr-17 19:57N 26°06' W 080°07'0 0.0
2017-Apr-17 19:30N 26°06' W 080°07'0 0.0
2017-Apr-17 19:00N 26°06' W 080°07'0 0.0
2017-Apr-17 18:30N 26°06' W 080°07'0 0.0
2017-Apr-17 18:00N 26°06' W 080°07'0 0.0
2017-Apr-17 17:30N 26°06' W 080°07'0 0.0
2017-Apr-17 17:00N 26°06' W 080°07'0 0.0
2017-Apr-17 16:24N 26°06' W 080°07'0 0.0
2017-Apr-17 15:54N 26°06' W 080°07'0 0.0
2017-Apr-17 15:27N 26°06' W 080°07'0 0.0
2017-Apr-17 15:00N 26°06' W 080°07'0 0.0
2017-Apr-17 14:30N 26°06' W 080°07'0 0.0
2017-Apr-17 13:30N 26°06' W 080°07'0 0.0
2017-Apr-17 13:00N 26°06' W 080°07'0 0.0
2017-Apr-17 12:30N 26°06' W 080°07'0 0.0
2017-Apr-17 12:00N 26°06' W 080°07'6602.8
2017-Apr-17 12:00N 26°00' W 080°06'612.0 090 / 151019.910.8 24.019.425.0
2017-Apr-17 11:30N 26°06' W 080°07'0 0.0
2017-Apr-17 10:57N 26°06' W 080°07'0 0.2
2017-Apr-17 10:31N 26°06' W 080°07'3 6.3
2017-Apr-17 10:00N 26°06' W 080°04'5 9.7
2017-Apr-17 09:30N 26°05' W 079°58'815.3
2017-Apr-17 09:00N 25°58' W 079°55'815.4
2017-Apr-17 08:30N 25°50' W 079°53'815.6
2017-Apr-17 08:00N 25°43' W 079°51'815.8
2017-Apr-17 07:30N 25°35' W 079°51'714.7
2017-Apr-17 07:01N 25°28' W 079°51'917.1
2017-Apr-17 06:30N 25°19' W 079°52'  
Track history (hours):
 
Tides and Currents Weather Stations Pressure Air Temp Water Temp Dewpoint Dewpoint Depression Visibility Wind Speed Wind Dir Waves Ship Positions

Coral Princess

Operator: Princess Cruises

Last reported at 2017-Apr-27 06:00 UTC. Time now 2017-Apr-29 13:34 UTC.
Position N 14°48' W 094°42'.

Type: Passenger vessel. MMSI: 310376000.

Wind from 210 at 15 knots

Barometer 1009.8 mb
Air temperature 28.0 ° C
Visibility: greater than 10.8 NM
Dewpoint 23.7 ° C
Water temperature 27.0 ° C

Date/timePositionNaut miles runAvg speedWind from/ knotsBaromVisibWave heightAir tempDewpointWater temp
2017-Apr-27 06:00N 14°48' W 094°42'   210 / 151009.810.8 28.023.727.0
2017-Apr-22 17:01N 09°11' W 079°52'0 5.6
2017-Apr-22 16:58N 09°11' W 079°52'4 7.6
2017-Apr-22 16:30N 09°13' W 079°55'2 2.4
2017-Apr-22 15:32N 09°15' W 079°55'0 0.0
2017-Apr-22 15:26N 09°15' W 079°55'0 0.0
2017-Apr-22 14:14N 09°15' W 079°55'1 1.6
2017-Apr-22 13:29N 09°16' W 079°55'0 0.4
2017-Apr-22 12:59N 09°16' W 079°55'0 0.4
2017-Apr-22 12:30N 09°17' W 079°55'1 1.0
2017-Apr-22 12:00N 09°17' W 079°55'1 2.5
2017-Apr-22 11:30N 09°18' W 079°55'3 5.5
2017-Apr-22 11:00N 09°21' W 079°55'3 6.2
2017-Apr-22 10:30N 09°24' W 079°55'713.3
2017-Apr-22 10:00N 09°31' W 079°54'715.0
2017-Apr-22 09:30N 09°38' W 079°51'20719.6
2017-Apr-21 23:00N 10°12' W 076°24'   1007.310.8 27.524.228.0
2017-Apr-19 03:00N 19°48' W 074°06'45116.6 080 / 301015.910.8 26.023.126.0
2017-Apr-17 23:47N 25°18' W 079°39'518.4
2017-Apr-17 23:30N 25°23' W 079°39'918.5
2017-Apr-17 23:00N 25°32' W 079°41'917.8
2017-Apr-17 22:30N 25°40' W 079°44'917.8
2017-Apr-17 22:00N 25°48' W 079°48'918.2
2017-Apr-17 21:30N 25°56' W 079°53'816.0
2017-Apr-17 21:00N 26°02' W 079°59'612.3
2017-Apr-17 20:30N 26°06' W 080°05'2 4.0
2017-Apr-17 19:57N 26°06' W 080°07'0 0.0
2017-Apr-17 19:30N 26°06' W 080°07'0 0.0
2017-Apr-17 19:00N 26°06' W 080°07'0 0.0
2017-Apr-17 18:30N 26°06' W 080°07'0 0.0
2017-Apr-17 18:00N 26°06' W 080°07'0 0.0
2017-Apr-17 17:30N 26°06' W 080°07'0 0.0
2017-Apr-17 17:00N 26°06' W 080°07'0 0.0
2017-Apr-17 16:24N 26°06' W 080°07'0 0.0
2017-Apr-17 15:54N 26°06' W 080°07'0 0.0
2017-Apr-17 15:27N 26°06' W 080°07'0 0.0
2017-Apr-17 15:00N 26°06' W 080°07'0 0.0
2017-Apr-17 14:30N 26°06' W 080°07'0 0.0
2017-Apr-17 13:30N 26°06' W 080°07'0 0.0
2017-Apr-17 13:00N 26°06' W 080°07'0 0.0
2017-Apr-17 12:30N 26°06' W 080°07'0 0.0
2017-Apr-17 12:00N 26°06' W 080°07'6602.8
2017-Apr-17 12:00N 26°00' W 080°06'612.0 090 / 151019.910.8 24.019.425.0
2017-Apr-17 11:30N 26°06' W 080°07'0 0.0
2017-Apr-17 10:57N 26°06' W 080°07'0 0.2
2017-Apr-17 10:31N 26°06' W 080°07'3 6.3
2017-Apr-17 10:00N 26°06' W 080°04'5 9.7
2017-Apr-17 09:30N 26°05' W 079°58'815.3
2017-Apr-17 09:00N 25°58' W 079°55'815.4
2017-Apr-17 08:30N 25°50' W 079°53'815.6
2017-Apr-17 08:00N 25°43' W 079°51'815.8
2017-Apr-17 07:30N 25°35' W 079°51'714.7
2017-Apr-17 07:01N 25°28' W 079°51'917.1
2017-Apr-17 06:30N 25°19' W 079°52'  

Dump ship's entire track history